sensor_id;sensor_type;location;lat;lon;timestamp;P1;durP1;ratioP1;P2;durP2;ratioP2
1366;SDS011;16877;48.810;9.282;2024-03-29T00:00:39;1.80;;;0.60;;
1366;SDS011;16877;48.810;9.282;2024-03-29T00:03:05;2.20;;;1.10;;
1366;SDS011;16877;48.810;9.282;2024-03-29T00:05:31;2.63;;;1.10;;
1366;SDS011;16877;48.810;9.282;2024-03-29T00:07:58;2.87;;;1.17;;
1366;SDS011;16877;48.810;9.282;2024-03-29T00:10:23;1.80;;;0.80;;
1366;SDS011;16877;48.810;9.282;2024-03-29T00:12:50;2.57;;;0.83;;
1366;SDS011;16877;48.810;9.282;2024-03-29T00:15:16;1.90;;;0.70;;
1366;SDS011;16877;48.810;9.282;2024-03-29T00:17:42;3.17;;;1.20;;
1366;SDS011;16877;48.810;9.282;2024-03-29T00:20:08;2.27;;;1.23;;
1366;SDS011;16877;48.810;9.282;2024-03-29T00:22:35;2.70;;;1.03;;
1366;SDS011;16877;48.810;9.282;2024-03-29T00:25:00;2.53;;;0.90;;
1366;SDS011;16877;48.810;9.282;2024-03-29T00:27:27;2.10;;;0.90;;
1366;SDS011;16877;48.810;9.282;2024-03-29T00:29:54;3.20;;;1.00;;
1366;SDS011;16877;48.810;9.282;2024-03-29T00:32:20;2.33;;;0.87;;
1366;SDS011;16877;48.810;9.282;2024-03-29T00:34:46;2.50;;;1.03;;
1366;SDS011;16877;48.810;9.282;2024-03-29T00:37:12;1.83;;;0.80;;
1366;SDS011;16877;48.810;9.282;2024-03-29T00:39:37;2.37;;;1.03;;
1366;SDS011;16877;48.810;9.282;2024-03-29T00:42:03;2.30;;;0.90;;
1366;SDS011;16877;48.810;9.282;2024-03-29T00:44:29;2.00;;;0.80;;
1366;SDS011;16877;48.810;9.282;2024-03-29T00:46:56;2.70;;;1.10;;
1366;SDS011;16877;48.810;9.282;2024-03-29T00:49:22;2.57;;;0.70;;
1366;SDS011;16877;48.810;9.282;2024-03-29T00:51:48;2.00;;;0.87;;
1366;SDS011;16877;48.810;9.282;2024-03-29T00:54:14;1.87;;;0.83;;
1366;SDS011;16877;48.810;9.282;2024-03-29T00:56:39;2.63;;;1.00;;
1366;SDS011;16877;48.810;9.282;2024-03-29T00:59:05;2.17;;;0.70;;
1366;SDS011;16877;48.810;9.282;2024-03-29T01:01:31;1.73;;;0.63;;
1366;SDS011;16877;48.810;9.282;2024-03-29T01:03:58;8.20;;;1.13;;
1366;SDS011;16877;48.810;9.282;2024-03-29T01:06:24;2.10;;;0.80;;
1366;SDS011;16877;48.810;9.282;2024-03-29T01:08:50;2.13;;;0.80;;
1366;SDS011;16877;48.810;9.282;2024-03-29T01:11:16;2.10;;;0.90;;
1366;SDS011;16877;48.810;9.282;2024-03-29T01:13:42;3.60;;;0.70;;
1366;SDS011;16877;48.810;9.282;2024-03-29T01:16:07;2.33;;;0.73;;
1366;SDS011;16877;48.810;9.282;2024-03-29T01:18:33;1.90;;;0.80;;
1366;SDS011;16877;48.810;9.282;2024-03-29T01:21:00;3.33;;;1.10;;
1366;SDS011;16877;48.810;9.282;2024-03-29T01:23:26;2.43;;;0.80;;
1366;SDS011;16877;48.810;9.282;2024-03-29T01:25:52;2.00;;;0.63;;
1366;SDS011;16877;48.810;9.282;2024-03-29T01:28:19;2.10;;;1.00;;
1366;SDS011;16877;48.810;9.282;2024-03-29T01:30:51;3.13;;;0.87;;
1366;SDS011;16877;48.810;9.282;2024-03-29T01:33:17;2.43;;;0.90;;
1366;SDS011;16877;48.810;9.282;2024-03-29T01:35:42;2.23;;;0.90;;
1366;SDS011;16877;48.810;9.282;2024-03-29T01:38:10;2.13;;;0.80;;
1366;SDS011;16877;48.810;9.282;2024-03-29T01:40:35;2.60;;;1.10;;
1366;SDS011;16877;48.810;9.282;2024-03-29T01:43:02;1.90;;;0.90;;
1366;SDS011;16877;48.810;9.282;2024-03-29T01:45:27;2.23;;;0.80;;
1366;SDS011;16877;48.810;9.282;2024-03-29T01:47:55;2.27;;;1.10;;
1366;SDS011;16877;48.810;9.282;2024-03-29T01:50:22;3.20;;;0.90;;
1366;SDS011;16877;48.810;9.282;2024-03-29T01:52:49;2.00;;;0.67;;
1366;SDS011;16877;48.810;9.282;2024-03-29T01:55:18;2.00;;;0.80;;
1366;SDS011;16877;48.810;9.282;2024-03-29T01:57:44;2.53;;;0.80;;
1366;SDS011;16877;48.810;9.282;2024-03-29T02:00:11;2.27;;;0.90;;
1366;SDS011;16877;48.810;9.282;2024-03-29T02:02:39;2.43;;;0.80;;
1366;SDS011;16877;48.810;9.282;2024-03-29T02:05:06;3.07;;;0.80;;
1366;SDS011;16877;48.810;9.282;2024-03-29T02:07:33;3.60;;;1.10;;
1366;SDS011;16877;48.810;9.282;2024-03-29T02:10:01;2.60;;;0.80;;
1366;SDS011;16877;48.810;9.282;2024-03-29T02:12:30;2.33;;;0.73;;
1366;SDS011;16877;48.810;9.282;2024-03-29T02:14:57;3.23;;;0.80;;
1366;SDS011;16877;48.810;9.282;2024-03-29T02:17:24;2.23;;;0.70;;
1366;SDS011;16877;48.810;9.282;2024-03-29T02:19:51;2.20;;;0.80;;
1366;SDS011;16877;48.810;9.282;2024-03-29T02:22:17;1.90;;;0.70;;
1366;SDS011;16877;48.810;9.282;2024-03-29T02:24:46;1.90;;;0.80;;
1366;SDS011;16877;48.810;9.282;2024-03-29T02:27:13;2.07;;;0.73;;
1366;SDS011;16877;48.810;9.282;2024-03-29T02:29:40;2.00;;;0.80;;
1366;SDS011;16877;48.810;9.282;2024-03-29T02:32:06;1.90;;;0.70;;
1366;SDS011;16877;48.810;9.282;2024-03-29T02:34:33;1.97;;;0.50;;
1366;SDS011;16877;48.810;9.282;2024-03-29T02:37:01;2.37;;;0.83;;
1366;SDS011;16877;48.810;9.282;2024-03-29T02:39:28;2.00;;;0.70;;
1366;SDS011;16877;48.810;9.282;2024-03-29T02:41:56;2.00;;;0.70;;
1366;SDS011;16877;48.810;9.282;2024-03-29T02:44:23;2.13;;;0.70;;
1366;SDS011;16877;48.810;9.282;2024-03-29T02:46:49;1.87;;;0.77;;
1366;SDS011;16877;48.810;9.282;2024-03-29T02:49:16;2.37;;;0.63;;
1366;SDS011;16877;48.810;9.282;2024-03-29T02:51:42;2.10;;;0.70;;
1366;SDS011;16877;48.810;9.282;2024-03-29T02:54:09;2.37;;;0.90;;
1366;SDS011;16877;48.810;9.282;2024-03-29T02:56:35;1.80;;;0.70;;
1366;SDS011;16877;48.810;9.282;2024-03-29T02:59:03;1.90;;;0.70;;
1366;SDS011;16877;48.810;9.282;2024-03-29T03:01:29;1.77;;;0.63;;
1366;SDS011;16877;48.810;9.282;2024-03-29T03:03:55;1.90;;;0.77;;
1366;SDS011;16877;48.810;9.282;2024-03-29T03:06:21;1.87;;;0.80;;
1366;SDS011;16877;48.810;9.282;2024-03-29T03:08:48;1.87;;;0.70;;
1366;SDS011;16877;48.810;9.282;2024-03-29T03:11:32;1.87;;;0.70;;
1366;SDS011;16877;48.810;9.282;2024-03-29T03:13:58;1.70;;;0.70;;
1366;SDS011;16877;48.810;9.282;2024-03-29T03:16:26;1.93;;;0.70;;
1366;SDS011;16877;48.810;9.282;2024-03-29T03:18:53;1.70;;;0.60;;
1366;SDS011;16877;48.810;9.282;2024-03-29T03:21:19;1.70;;;0.70;;
1366;SDS011;16877;48.810;9.282;2024-03-29T03:23:46;2.47;;;0.80;;
1366;SDS011;16877;48.810;9.282;2024-03-29T03:26:11;2.00;;;0.70;;
1366;SDS011;16877;48.810;9.282;2024-03-29T03:28:38;2.10;;;0.63;;
1366;SDS011;16877;48.810;9.282;2024-03-29T03:31:04;2.03;;;0.67;;
1366;SDS011;16877;48.810;9.282;2024-03-29T03:33:33;1.60;;;0.50;;
1366;SDS011;16877;48.810;9.282;2024-03-29T03:35:59;1.67;;;0.60;;
1366;SDS011;16877;48.810;9.282;2024-03-29T03:38:25;1.70;;;0.60;;
1366;SDS011;16877;48.810;9.282;2024-03-29T03:40:52;1.70;;;0.60;;
1366;SDS011;16877;48.810;9.282;2024-03-29T03:43:19;2.30;;;0.63;;
1366;SDS011;16877;48.810;9.282;2024-03-29T03:45:44;2.00;;;0.77;;
1366;SDS011;16877;48.810;9.282;2024-03-29T03:48:12;2.20;;;0.77;;
1366;SDS011;16877;48.810;9.282;2024-03-29T03:50:40;2.33;;;0.70;;
1366;SDS011;16877;48.810;9.282;2024-03-29T03:53:06;2.67;;;0.93;;
1366;SDS011;16877;48.810;9.282;2024-03-29T03:55:35;1.80;;;0.60;;
1366;SDS011;16877;48.810;9.282;2024-03-29T03:58:02;2.13;;;0.70;;
1366;SDS011;16877;48.810;9.282;2024-03-29T04:00:28;1.93;;;0.70;;
1366;SDS011;16877;48.810;9.282;2024-03-29T04:02:54;1.87;;;0.60;;
1366;SDS011;16877;48.810;9.282;2024-03-29T04:05:21;2.20;;;0.70;;
1366;SDS011;16877;48.810;9.282;2024-03-29T04:07:51;2.00;;;0.57;;
1366;SDS011;16877;48.810;9.282;2024-03-29T04:10:17;2.03;;;0.93;;
1366;SDS011;16877;48.810;9.282;2024-03-29T04:12:43;1.70;;;0.60;;
1366;SDS011;16877;48.810;9.282;2024-03-29T04:15:09;1.93;;;0.77;;
1366;SDS011;16877;48.810;9.282;2024-03-29T04:17:36;2.00;;;0.60;;
1366;SDS011;16877;48.810;9.282;2024-03-29T04:20:02;1.60;;;0.53;;
1366;SDS011;16877;48.810;9.282;2024-03-29T04:22:29;2.20;;;0.60;;
1366;SDS011;16877;48.810;9.282;2024-03-29T04:24:56;1.70;;;0.60;;
1366;SDS011;16877;48.810;9.282;2024-03-29T04:27:23;2.13;;;0.80;;
1366;SDS011;16877;48.810;9.282;2024-03-29T04:29:50;2.50;;;0.70;;
1366;SDS011;16877;48.810;9.282;2024-03-29T04:32:17;2.33;;;0.60;;
1366;SDS011;16877;48.810;9.282;2024-03-29T04:34:45;1.53;;;0.53;;
1366;SDS011;16877;48.810;9.282;2024-03-29T04:37:12;2.30;;;0.80;;
1366;SDS011;16877;48.810;9.282;2024-03-29T04:39:39;1.80;;;0.60;;
1366;SDS011;16877;48.810;9.282;2024-03-29T04:42:08;2.00;;;0.80;;
1366;SDS011;16877;48.810;9.282;2024-03-29T04:44:35;1.60;;;0.53;;
1366;SDS011;16877;48.810;9.282;2024-03-29T04:47:02;2.70;;;0.87;;
1366;SDS011;16877;48.810;9.282;2024-03-29T04:49:29;1.97;;;0.77;;
1366;SDS011;16877;48.810;9.282;2024-03-29T04:51:59;1.67;;;0.60;;
1366;SDS011;16877;48.810;9.282;2024-03-29T04:54:26;1.83;;;0.80;;
1366;SDS011;16877;48.810;9.282;2024-03-29T04:56:53;1.60;;;0.50;;
1366;SDS011;16877;48.810;9.282;2024-03-29T04:59:21;1.70;;;0.50;;
1366;SDS011;16877;48.810;9.282;2024-03-29T05:01:48;2.20;;;1.00;;
1366;SDS011;16877;48.810;9.282;2024-03-29T05:04:16;2.50;;;0.70;;
1366;SDS011;16877;48.810;9.282;2024-03-29T05:06:50;1.97;;;0.70;;
1366;SDS011;16877;48.810;9.282;2024-03-29T05:09:16;1.90;;;0.70;;
1366;SDS011;16877;48.810;9.282;2024-03-29T05:11:43;2.00;;;0.87;;
1366;SDS011;16877;48.810;9.282;2024-03-29T05:14:11;1.53;;;0.50;;
1366;SDS011;16877;48.810;9.282;2024-03-29T05:16:40;2.03;;;0.73;;
1366;SDS011;16877;48.810;9.282;2024-03-29T05:19:07;2.10;;;0.70;;
1366;SDS011;16877;48.810;9.282;2024-03-29T05:21:33;2.30;;;0.80;;
1366;SDS011;16877;48.810;9.282;2024-03-29T05:24:00;1.80;;;0.70;;
1366;SDS011;16877;48.810;9.282;2024-03-29T05:26:26;1.93;;;0.80;;
1366;SDS011;16877;48.810;9.282;2024-03-29T05:28:53;2.20;;;0.80;;
1366;SDS011;16877;48.810;9.282;2024-03-29T05:31:22;1.60;;;0.60;;
1366;SDS011;16877;48.810;9.282;2024-03-29T05:33:50;1.80;;;0.70;;
1366;SDS011;16877;48.810;9.282;2024-03-29T05:36:17;1.63;;;0.70;;
1366;SDS011;16877;48.810;9.282;2024-03-29T05:38:44;1.80;;;0.70;;
1366;SDS011;16877;48.810;9.282;2024-03-29T05:41:10;1.83;;;0.70;;
1366;SDS011;16877;48.810;9.282;2024-03-29T05:43:38;2.03;;;0.80;;
1366;SDS011;16877;48.810;9.282;2024-03-29T05:46:04;2.00;;;0.60;;
1366;SDS011;16877;48.810;9.282;2024-03-29T05:48:31;1.93;;;0.67;;
1366;SDS011;16877;48.810;9.282;2024-03-29T05:50:59;2.30;;;0.80;;
1366;SDS011;16877;48.810;9.282;2024-03-29T05:53:26;2.20;;;0.80;;
1366;SDS011;16877;48.810;9.282;2024-03-29T05:55:52;2.00;;;0.80;;
1366;SDS011;16877;48.810;9.282;2024-03-29T05:58:19;1.70;;;0.73;;
1366;SDS011;16877;48.810;9.282;2024-03-29T06:00:46;2.00;;;0.60;;
1366;SDS011;16877;48.810;9.282;2024-03-29T06:03:13;2.30;;;0.50;;
1366;SDS011;16877;48.810;9.282;2024-03-29T06:05:40;1.80;;;0.70;;
1366;SDS011;16877;48.810;9.282;2024-03-29T06:08:08;2.40;;;1.00;;
1366;SDS011;16877;48.810;9.282;2024-03-29T06:10:35;2.00;;;0.90;;
1366;SDS011;16877;48.810;9.282;2024-03-29T06:13:01;2.70;;;1.00;;
1366;SDS011;16877;48.810;9.282;2024-03-29T06:15:35;1.80;;;0.77;;
1366;SDS011;16877;48.810;9.282;2024-03-29T06:18:19;2.00;;;0.67;;
1366;SDS011;16877;48.810;9.282;2024-03-29T06:20:46;2.50;;;0.87;;
1366;SDS011;16877;48.810;9.282;2024-03-29T06:23:15;2.10;;;0.93;;
1366;SDS011;16877;48.810;9.282;2024-03-29T06:25:41;2.10;;;0.83;;
1366;SDS011;16877;48.810;9.282;2024-03-29T06:28:08;2.43;;;0.90;;
1366;SDS011;16877;48.810;9.282;2024-03-29T06:30:35;2.00;;;0.80;;
1366;SDS011;16877;48.810;9.282;2024-03-29T06:33:01;2.10;;;0.90;;
1366;SDS011;16877;48.810;9.282;2024-03-29T06:35:28;2.33;;;1.10;;
1366;SDS011;16877;48.810;9.282;2024-03-29T06:37:55;2.37;;;1.00;;
1366;SDS011;16877;48.810;9.282;2024-03-29T06:40:24;1.90;;;0.83;;
1366;SDS011;16877;48.810;9.282;2024-03-29T06:42:50;2.50;;;0.70;;
1366;SDS011;16877;48.810;9.282;2024-03-29T06:45:18;2.00;;;0.70;;
1366;SDS011;16877;48.810;9.282;2024-03-29T06:47:44;1.90;;;0.70;;
1366;SDS011;16877;48.810;9.282;2024-03-29T06:50:11;2.67;;;0.83;;
1366;SDS011;16877;48.810;9.282;2024-03-29T06:52:38;2.27;;;1.00;;
1366;SDS011;16877;48.810;9.282;2024-03-29T06:55:05;1.90;;;0.70;;
1366;SDS011;16877;48.810;9.282;2024-03-29T06:57:33;1.87;;;0.83;;
1366;SDS011;16877;48.810;9.282;2024-03-29T07:00:00;1.80;;;0.80;;
1366;SDS011;16877;48.810;9.282;2024-03-29T07:02:28;2.60;;;0.63;;
1366;SDS011;16877;48.810;9.282;2024-03-29T07:04:55;2.60;;;0.90;;
1366;SDS011;16877;48.810;9.282;2024-03-29T07:07:22;1.80;;;0.80;;
1366;SDS011;16877;48.810;9.282;2024-03-29T07:09:48;2.57;;;0.70;;
1366;SDS011;16877;48.810;9.282;2024-03-29T07:12:15;1.90;;;0.83;;
1366;SDS011;16877;48.810;9.282;2024-03-29T07:14:44;2.20;;;0.90;;
1366;SDS011;16877;48.810;9.282;2024-03-29T07:17:10;2.03;;;0.93;;
1366;SDS011;16877;48.810;9.282;2024-03-29T07:19:37;2.03;;;0.90;;
1366;SDS011;16877;48.810;9.282;2024-03-29T07:22:04;2.60;;;0.70;;
1366;SDS011;16877;48.810;9.282;2024-03-29T07:24:30;3.13;;;0.70;;
1366;SDS011;16877;48.810;9.282;2024-03-29T07:26:57;1.73;;;0.60;;
1366;SDS011;16877;48.810;9.282;2024-03-29T07:29:24;2.20;;;0.90;;
1366;SDS011;16877;48.810;9.282;2024-03-29T07:31:52;2.87;;;0.87;;
1366;SDS011;16877;48.810;9.282;2024-03-29T07:34:19;1.83;;;0.83;;
1366;SDS011;16877;48.810;9.282;2024-03-29T07:36:45;3.57;;;1.00;;
1366;SDS011;16877;48.810;9.282;2024-03-29T07:39:12;2.60;;;0.70;;
1366;SDS011;16877;48.810;9.282;2024-03-29T07:41:39;1.70;;;0.70;;
1366;SDS011;16877;48.810;9.282;2024-03-29T07:44:05;2.10;;;1.00;;
1366;SDS011;16877;48.810;9.282;2024-03-29T07:46:33;2.23;;;0.97;;
1366;SDS011;16877;48.810;9.282;2024-03-29T07:49:02;2.63;;;1.20;;
1366;SDS011;16877;48.810;9.282;2024-03-29T07:51:29;2.20;;;1.03;;
1366;SDS011;16877;48.810;9.282;2024-03-29T07:53:56;2.47;;;1.33;;
1366;SDS011;16877;48.810;9.282;2024-03-29T07:56:23;2.73;;;1.10;;
1366;SDS011;16877;48.810;9.282;2024-03-29T07:58:51;3.20;;;1.30;;
1366;SDS011;16877;48.810;9.282;2024-03-29T08:01:19;2.13;;;1.10;;
1366;SDS011;16877;48.810;9.282;2024-03-29T08:03:46;3.50;;;1.40;;
1366;SDS011;16877;48.810;9.282;2024-03-29T08:06:14;3.83;;;1.23;;
1366;SDS011;16877;48.810;9.282;2024-03-29T08:08:43;3.33;;;1.80;;
1366;SDS011;16877;48.810;9.282;2024-03-29T08:11:10;3.17;;;1.90;;
1366;SDS011;16877;48.810;9.282;2024-03-29T08:13:36;4.37;;;2.30;;
1366;SDS011;16877;48.810;9.282;2024-03-29T08:16:04;4.40;;;2.07;;
1366;SDS011;16877;48.810;9.282;2024-03-29T08:18:31;3.57;;;2.17;;
1366;SDS011;16877;48.810;9.282;2024-03-29T08:20:58;4.57;;;2.60;;
1366;SDS011;16877;48.810;9.282;2024-03-29T08:23:26;4.67;;;2.10;;
1366;SDS011;16877;48.810;9.282;2024-03-29T08:25:53;2.87;;;1.50;;
1366;SDS011;16877;48.810;9.282;2024-03-29T08:28:21;2.70;;;1.20;;
1366;SDS011;16877;48.810;9.282;2024-03-29T08:30:56;2.60;;;1.20;;
1366;SDS011;16877;48.810;9.282;2024-03-29T08:33:23;2.47;;;1.10;;
1366;SDS011;16877;48.810;9.282;2024-03-29T08:35:50;2.93;;;1.00;;
1366;SDS011;16877;48.810;9.282;2024-03-29T08:38:17;2.73;;;1.37;;
1366;SDS011;16877;48.810;9.282;2024-03-29T08:40:45;2.37;;;1.00;;
1366;SDS011;16877;48.810;9.282;2024-03-29T08:43:13;2.00;;;0.90;;
1366;SDS011;16877;48.810;9.282;2024-03-29T08:45:40;2.77;;;1.30;;
1366;SDS011;16877;48.810;9.282;2024-03-29T08:48:07;2.53;;;1.13;;
1366;SDS011;16877;48.810;9.282;2024-03-29T08:50:34;3.30;;;1.53;;
1366;SDS011;16877;48.810;9.282;2024-03-29T08:53:01;4.07;;;1.90;;
1366;SDS011;16877;48.810;9.282;2024-03-29T08:55:28;2.70;;;1.60;;
1366;SDS011;16877;48.810;9.282;2024-03-29T08:57:56;4.90;;;3.20;;
1366;SDS011;16877;48.810;9.282;2024-03-29T09:00:23;4.30;;;2.87;;
1366;SDS011;16877;48.810;9.282;2024-03-29T09:02:50;4.67;;;2.63;;
1366;SDS011;16877;48.810;9.282;2024-03-29T09:05:17;4.70;;;2.70;;
1366;SDS011;16877;48.810;9.282;2024-03-29T09:07:44;5.27;;;3.37;;
1366;SDS011;16877;48.810;9.282;2024-03-29T09:10:10;5.87;;;3.60;;
1366;SDS011;16877;48.810;9.282;2024-03-29T09:12:37;3.93;;;2.93;;
1366;SDS011;16877;48.810;9.282;2024-03-29T09:15:05;4.70;;;2.57;;
1366;SDS011;16877;48.810;9.282;2024-03-29T09:17:38;4.23;;;2.57;;
1366;SDS011;16877;48.810;9.282;2024-03-29T09:20:05;5.47;;;3.07;;
1366;SDS011;16877;48.810;9.282;2024-03-29T09:22:32;4.07;;;2.60;;
1366;SDS011;16877;48.810;9.282;2024-03-29T09:24:59;3.43;;;2.23;;
1366;SDS011;16877;48.810;9.282;2024-03-29T09:27:26;4.10;;;2.10;;
1366;SDS011;16877;48.810;9.282;2024-03-29T09:29:54;3.50;;;1.93;;
1366;SDS011;16877;48.810;9.282;2024-03-29T09:32:22;4.10;;;2.30;;
1366;SDS011;16877;48.810;9.282;2024-03-29T09:34:49;2.83;;;1.77;;
1366;SDS011;16877;48.810;9.282;2024-03-29T09:37:16;3.67;;;1.90;;
1366;SDS011;16877;48.810;9.282;2024-03-29T09:39:45;6.27;;;4.33;;
1366;SDS011;16877;48.810;9.282;2024-03-29T09:42:12;7.17;;;5.47;;
1366;SDS011;16877;48.810;9.282;2024-03-29T09:44:43;5.33;;;4.00;;
1366;SDS011;16877;48.810;9.282;2024-03-29T09:47:10;6.20;;;3.90;;
1366;SDS011;16877;48.810;9.282;2024-03-29T09:49:42;5.23;;;3.37;;
1366;SDS011;16877;48.810;9.282;2024-03-29T09:52:10;5.70;;;3.33;;
1366;SDS011;16877;48.810;9.282;2024-03-29T09:54:38;4.63;;;3.00;;
1366;SDS011;16877;48.810;9.282;2024-03-29T09:57:05;5.60;;;3.33;;
1366;SDS011;16877;48.810;9.282;2024-03-29T09:59:31;3.87;;;2.53;;
1366;SDS011;16877;48.810;9.282;2024-03-29T10:01:59;7.53;;;2.87;;
1366;SDS011;16877;48.810;9.282;2024-03-29T10:04:30;3.13;;;2.00;;
1366;SDS011;16877;48.810;9.282;2024-03-29T10:06:59;4.20;;;2.70;;
1366;SDS011;16877;48.810;9.282;2024-03-29T10:09:26;6.30;;;2.67;;
1366;SDS011;16877;48.810;9.282;2024-03-29T10:11:57;2.90;;;1.90;;
1366;SDS011;16877;48.810;9.282;2024-03-29T10:14:24;3.97;;;2.10;;
1366;SDS011;16877;48.810;9.282;2024-03-29T10:16:50;3.53;;;1.73;;
1366;SDS011;16877;48.810;9.282;2024-03-29T10:19:18;2.20;;;1.30;;
1366;SDS011;16877;48.810;9.282;2024-03-29T10:21:46;2.80;;;1.60;;
1366;SDS011;16877;48.810;9.282;2024-03-29T10:24:14;2.73;;;1.43;;
1366;SDS011;16877;48.810;9.282;2024-03-29T10:26:42;3.57;;;2.17;;
1366;SDS011;16877;48.810;9.282;2024-03-29T10:29:09;2.90;;;1.80;;
1366;SDS011;16877;48.810;9.282;2024-03-29T10:31:36;2.93;;;1.30;;
1366;SDS011;16877;48.810;9.282;2024-03-29T10:34:03;3.50;;;1.57;;
1366;SDS011;16877;48.810;9.282;2024-03-29T10:36:30;2.37;;;1.20;;
1366;SDS011;16877;48.810;9.282;2024-03-29T10:39:00;2.63;;;1.50;;
1366;SDS011;16877;48.810;9.282;2024-03-29T10:41:29;3.73;;;1.90;;
1366;SDS011;16877;48.810;9.282;2024-03-29T10:43:56;2.43;;;1.40;;
1366;SDS011;16877;48.810;9.282;2024-03-29T10:46:25;3.90;;;1.80;;
1366;SDS011;16877;48.810;9.282;2024-03-29T10:48:53;3.10;;;1.80;;
1366;SDS011;16877;48.810;9.282;2024-03-29T10:51:21;2.67;;;1.47;;
1366;SDS011;16877;48.810;9.282;2024-03-29T10:53:48;2.70;;;1.63;;
1366;SDS011;16877;48.810;9.282;2024-03-29T10:56:15;2.47;;;1.40;;
1366;SDS011;16877;48.810;9.282;2024-03-29T10:58:44;3.03;;;1.53;;
1366;SDS011;16877;48.810;9.282;2024-03-29T11:01:16;2.80;;;1.83;;
1366;SDS011;16877;48.810;9.282;2024-03-29T11:03:45;4.60;;;1.60;;
1366;SDS011;16877;48.810;9.282;2024-03-29T11:06:16;3.13;;;2.00;;
1366;SDS011;16877;48.810;9.282;2024-03-29T11:08:46;2.67;;;1.60;;
1366;SDS011;16877;48.810;9.282;2024-03-29T11:11:16;4.90;;;2.27;;
1366;SDS011;16877;48.810;9.282;2024-03-29T11:13:46;3.23;;;1.60;;
1366;SDS011;16877;48.810;9.282;2024-03-29T11:16:19;3.70;;;2.03;;
1366;SDS011;16877;48.810;9.282;2024-03-29T11:18:46;3.27;;;1.60;;
1366;SDS011;16877;48.810;9.282;2024-03-29T11:21:14;2.40;;;1.50;;
1366;SDS011;16877;48.810;9.282;2024-03-29T11:23:47;2.73;;;1.53;;
1366;SDS011;16877;48.810;9.282;2024-03-29T11:26:14;2.80;;;1.70;;
1366;SDS011;16877;48.810;9.282;2024-03-29T11:28:47;2.97;;;1.83;;
1366;SDS011;16877;48.810;9.282;2024-03-29T11:31:16;2.97;;;1.63;;
1366;SDS011;16877;48.810;9.282;2024-03-29T11:33:44;2.47;;;1.57;;
1366;SDS011;16877;48.810;9.282;2024-03-29T11:36:14;2.70;;;1.50;;
1366;SDS011;16877;48.810;9.282;2024-03-29T11:38:41;2.73;;;1.50;;
1366;SDS011;16877;48.810;9.282;2024-03-29T11:41:10;3.27;;;1.73;;
1366;SDS011;16877;48.810;9.282;2024-03-29T11:43:38;2.73;;;1.53;;
1366;SDS011;16877;48.810;9.282;2024-03-29T11:46:08;3.57;;;1.33;;
1366;SDS011;16877;48.810;9.282;2024-03-29T11:48:36;2.70;;;1.63;;
1366;SDS011;16877;48.810;9.282;2024-03-29T11:51:04;3.37;;;1.43;;
1366;SDS011;16877;48.810;9.282;2024-03-29T11:53:33;2.80;;;1.20;;
1366;SDS011;16877;48.810;9.282;2024-03-29T11:56:00;2.77;;;1.10;;
1366;SDS011;16877;48.810;9.282;2024-03-29T11:58:29;2.50;;;1.50;;
1366;SDS011;16877;48.810;9.282;2024-03-29T12:00:57;2.70;;;1.10;;
1366;SDS011;16877;48.810;9.282;2024-03-29T12:03:26;2.20;;;1.00;;
1366;SDS011;16877;48.810;9.282;2024-03-29T12:05:55;3.00;;;1.50;;
1366;SDS011;16877;48.810;9.282;2024-03-29T12:08:27;2.80;;;1.43;;
1366;SDS011;16877;48.810;9.282;2024-03-29T12:10:54;2.13;;;1.07;;
1366;SDS011;16877;48.810;9.282;2024-03-29T12:13:21;2.73;;;1.40;;
1366;SDS011;16877;48.810;9.282;2024-03-29T12:15:48;2.30;;;1.20;;
1366;SDS011;16877;48.810;9.282;2024-03-29T12:18:15;2.40;;;1.30;;
1366;SDS011;16877;48.810;9.282;2024-03-29T12:20:43;2.90;;;1.20;;
1366;SDS011;16877;48.810;9.282;2024-03-29T12:23:14;2.63;;;1.33;;
1366;SDS011;16877;48.810;9.282;2024-03-29T12:25:42;2.63;;;1.30;;
1366;SDS011;16877;48.810;9.282;2024-03-29T12:28:10;2.50;;;1.20;;
1366;SDS011;16877;48.810;9.282;2024-03-29T12:30:37;2.70;;;1.20;;
1366;SDS011;16877;48.810;9.282;2024-03-29T12:33:07;2.30;;;1.40;;
1366;SDS011;16877;48.810;9.282;2024-03-29T12:35:35;2.00;;;0.83;;
1366;SDS011;16877;48.810;9.282;2024-03-29T12:38:04;2.00;;;1.10;;
1366;SDS011;16877;48.810;9.282;2024-03-29T12:40:32;2.40;;;1.10;;
1366;SDS011;16877;48.810;9.282;2024-03-29T12:43:02;2.50;;;1.23;;
1366;SDS011;16877;48.810;9.282;2024-03-29T12:45:30;2.77;;;0.97;;
1366;SDS011;16877;48.810;9.282;2024-03-29T12:47:57;2.03;;;0.93;;
1366;SDS011;16877;48.810;9.282;2024-03-29T12:50:25;1.97;;;0.90;;
1366;SDS011;16877;48.810;9.282;2024-03-29T12:52:53;2.10;;;1.00;;
1366;SDS011;16877;48.810;9.282;2024-03-29T12:55:23;2.77;;;1.23;;
1366;SDS011;16877;48.810;9.282;2024-03-29T12:57:53;2.57;;;1.33;;
1366;SDS011;16877;48.810;9.282;2024-03-29T13:00:20;2.30;;;1.17;;
1366;SDS011;16877;48.810;9.282;2024-03-29T13:02:46;2.23;;;0.90;;
1366;SDS011;16877;48.810;9.282;2024-03-29T13:05:13;2.30;;;1.10;;
1366;SDS011;16877;48.810;9.282;2024-03-29T13:07:40;2.07;;;1.10;;
1366;SDS011;16877;48.810;9.282;2024-03-29T13:10:08;2.40;;;1.10;;
1366;SDS011;16877;48.810;9.282;2024-03-29T13:12:40;2.00;;;0.90;;
1366;SDS011;16877;48.810;9.282;2024-03-29T13:15:14;2.17;;;1.00;;
1366;SDS011;16877;48.810;9.282;2024-03-29T13:17:42;2.10;;;0.93;;
1366;SDS011;16877;48.810;9.282;2024-03-29T13:20:09;1.90;;;0.93;;
1366;SDS011;16877;48.810;9.282;2024-03-29T13:22:37;2.90;;;0.97;;
1366;SDS011;16877;48.810;9.282;2024-03-29T13:25:07;1.90;;;0.83;;
1366;SDS011;16877;48.810;9.282;2024-03-29T13:27:34;1.97;;;0.80;;
1366;SDS011;16877;48.810;9.282;2024-03-29T13:30:03;2.10;;;0.80;;
1366;SDS011;16877;48.810;9.282;2024-03-29T13:32:31;1.80;;;0.80;;
1366;SDS011;16877;48.810;9.282;2024-03-29T13:34:58;2.40;;;1.00;;
1366;SDS011;16877;48.810;9.282;2024-03-29T13:37:25;2.80;;;1.10;;
1366;SDS011;16877;48.810;9.282;2024-03-29T13:39:52;2.60;;;1.00;;
1366;SDS011;16877;48.810;9.282;2024-03-29T13:42:19;2.43;;;0.80;;
1366;SDS011;16877;48.810;9.282;2024-03-29T13:44:46;2.20;;;0.77;;
1366;SDS011;16877;48.810;9.282;2024-03-29T13:47:16;2.50;;;0.90;;
1366;SDS011;16877;48.810;9.282;2024-03-29T13:49:43;3.13;;;1.00;;
1366;SDS011;16877;48.810;9.282;2024-03-29T13:52:11;2.47;;;0.90;;
1366;SDS011;16877;48.810;9.282;2024-03-29T13:54:41;2.80;;;1.00;;
1366;SDS011;16877;48.810;9.282;2024-03-29T13:57:09;2.83;;;1.23;;
1366;SDS011;16877;48.810;9.282;2024-03-29T13:59:35;3.37;;;1.00;;
1366;SDS011;16877;48.810;9.282;2024-03-29T14:02:04;2.73;;;1.10;;
1366;SDS011;16877;48.810;9.282;2024-03-29T14:04:32;5.50;;;1.20;;
1366;SDS011;16877;48.810;9.282;2024-03-29T14:06:58;2.27;;;1.10;;
1366;SDS011;16877;48.810;9.282;2024-03-29T14:09:27;2.10;;;0.90;;
1366;SDS011;16877;48.810;9.282;2024-03-29T14:11:53;1.90;;;0.87;;
1366;SDS011;16877;48.810;9.282;2024-03-29T14:14:21;2.60;;;0.90;;
1366;SDS011;16877;48.810;9.282;2024-03-29T14:16:48;2.13;;;0.87;;
1366;SDS011;16877;48.810;9.282;2024-03-29T14:19:15;4.00;;;1.00;;
1366;SDS011;16877;48.810;9.282;2024-03-29T14:21:43;2.00;;;0.80;;
1366;SDS011;16877;48.810;9.282;2024-03-29T14:24:10;2.50;;;1.30;;
1366;SDS011;16877;48.810;9.282;2024-03-29T14:26:36;1.97;;;0.90;;
1366;SDS011;16877;48.810;9.282;2024-03-29T14:29:03;2.60;;;1.07;;
1366;SDS011;16877;48.810;9.282;2024-03-29T14:31:31;2.10;;;1.10;;
1366;SDS011;16877;48.810;9.282;2024-03-29T14:33:58;2.70;;;0.90;;
1366;SDS011;16877;48.810;9.282;2024-03-29T14:36:24;2.17;;;1.00;;
1366;SDS011;16877;48.810;9.282;2024-03-29T14:38:52;2.77;;;1.10;;
1366;SDS011;16877;48.810;9.282;2024-03-29T14:41:21;2.37;;;1.00;;
1366;SDS011;16877;48.810;9.282;2024-03-29T14:43:48;2.60;;;1.33;;
1366;SDS011;16877;48.810;9.282;2024-03-29T14:46:17;2.30;;;0.90;;
1366;SDS011;16877;48.810;9.282;2024-03-29T14:48:45;2.43;;;1.23;;
1366;SDS011;16877;48.810;9.282;2024-03-29T14:51:12;2.50;;;1.20;;
1366;SDS011;16877;48.810;9.282;2024-03-29T14:53:39;2.20;;;1.10;;
1366;SDS011;16877;48.810;9.282;2024-03-29T14:56:11;2.33;;;1.00;;
1366;SDS011;16877;48.810;9.282;2024-03-29T14:58:37;2.43;;;1.40;;
1366;SDS011;16877;48.810;9.282;2024-03-29T15:01:05;2.40;;;1.10;;